sensor_id;sensor_type;location;lat;lon;timestamp;P1;durP1;ratioP1;P2;durP2;ratioP2
5811;SDS011;2932;52.400;9.558;2023-03-31T00:00:05;7.13;;;2.07;;
5811;SDS011;2932;52.400;9.558;2023-03-31T00:02:36;4.77;;;2.03;;
5811;SDS011;2932;52.400;9.558;2023-03-31T00:05:01;5.30;;;2.13;;
5811;SDS011;2932;52.400;9.558;2023-03-31T00:07:27;6.93;;;1.50;;
5811;SDS011;2932;52.400;9.558;2023-03-31T00:09:52;2.87;;;1.50;;
5811;SDS011;2932;52.400;9.558;2023-03-31T00:12:21;5.70;;;1.50;;
5811;SDS011;2932;52.400;9.558;2023-03-31T00:14:47;4.40;;;1.23;;
5811;SDS011;2932;52.400;9.558;2023-03-31T00:17:12;10.13;;;1.70;;
5811;SDS011;2932;52.400;9.558;2023-03-31T00:19:38;6.73;;;1.70;;
5811;SDS011;2932;52.400;9.558;2023-03-31T00:22:05;3.47;;;1.03;;
5811;SDS011;2932;52.400;9.558;2023-03-31T00:24:32;5.83;;;1.40;;
5811;SDS011;2932;52.400;9.558;2023-03-31T00:26:58;5.80;;;1.63;;
5811;SDS011;2932;52.400;9.558;2023-03-31T00:29:25;3.30;;;1.20;;
5811;SDS011;2932;52.400;9.558;2023-03-31T00:31:50;7.30;;;1.70;;
5811;SDS011;2932;52.400;9.558;2023-03-31T00:34:16;3.70;;;1.50;;
5811;SDS011;2932;52.400;9.558;2023-03-31T00:36:41;4.73;;;1.40;;
5811;SDS011;2932;52.400;9.558;2023-03-31T00:39:13;5.87;;;1.30;;
5811;SDS011;2932;52.400;9.558;2023-03-31T00:41:40;7.60;;;1.93;;
5811;SDS011;2932;52.400;9.558;2023-03-31T00:52:14;6.27;;;1.50;;
5811;SDS011;2932;52.400;9.558;2023-03-31T00:54:43;6.57;;;1.50;;
5811;SDS011;2932;52.400;9.558;2023-03-31T00:57:11;3.90;;;1.50;;
5811;SDS011;2932;52.400;9.558;2023-03-31T00:59:40;4.37;;;1.50;;
5811;SDS011;2932;52.400;9.558;2023-03-31T01:02:09;5.90;;;1.70;;
5811;SDS011;2932;52.400;9.558;2023-03-31T01:04:38;8.17;;;1.77;;
5811;SDS011;2932;52.400;9.558;2023-03-31T01:09:40;5.13;;;1.30;;
5811;SDS011;2932;52.400;9.558;2023-03-31T01:12:11;4.60;;;1.50;;
5811;SDS011;2932;52.400;9.558;2023-03-31T01:14:39;6.20;;;1.40;;
5811;SDS011;2932;52.400;9.558;2023-03-31T01:17:04;4.87;;;1.60;;
5811;SDS011;2932;52.400;9.558;2023-03-31T01:22:35;5.77;;;1.60;;
5811;SDS011;2932;52.400;9.558;2023-03-31T01:43:35;3.53;;;1.37;;
5811;SDS011;2932;52.400;9.558;2023-03-31T01:56:56;4.57;;;1.87;;
5811;SDS011;2932;52.400;9.558;2023-03-31T01:59:36;6.07;;;1.70;;
5811;SDS011;2932;52.400;9.558;2023-03-31T02:02:08;4.60;;;1.50;;
5811;SDS011;2932;52.400;9.558;2023-03-31T02:04:46;5.27;;;1.70;;
5811;SDS011;2932;52.400;9.558;2023-03-31T02:07:18;5.93;;;1.80;;
5811;SDS011;2932;52.400;9.558;2023-03-31T02:09:49;4.43;;;1.70;;
5811;SDS011;2932;52.400;9.558;2023-03-31T02:12:21;3.77;;;1.70;;
5811;SDS011;2932;52.400;9.558;2023-03-31T02:14:51;4.03;;;2.33;;
5811;SDS011;2932;52.400;9.558;2023-03-31T02:17:20;5.37;;;1.80;;
5811;SDS011;2932;52.400;9.558;2023-03-31T02:19:54;6.63;;;2.40;;
5811;SDS011;2932;52.400;9.558;2023-03-31T02:22:22;8.23;;;1.97;;
5811;SDS011;2932;52.400;9.558;2023-03-31T02:24:49;8.33;;;2.50;;
5811;SDS011;2932;52.400;9.558;2023-03-31T02:27:38;5.30;;;2.10;;
5811;SDS011;2932;52.400;9.558;2023-03-31T02:30:06;7.80;;;1.93;;
5811;SDS011;2932;52.400;9.558;2023-03-31T02:32:36;6.03;;;2.10;;
5811;SDS011;2932;52.400;9.558;2023-03-31T02:35:01;4.77;;;2.00;;
5811;SDS011;2932;52.400;9.558;2023-03-31T02:37:28;5.23;;;2.37;;
5811;SDS011;2932;52.400;9.558;2023-03-31T02:39:55;3.07;;;1.80;;
5811;SDS011;2932;52.400;9.558;2023-03-31T02:42:24;6.27;;;1.80;;
5811;SDS011;2932;52.400;9.558;2023-03-31T02:44:50;7.13;;;2.43;;
5811;SDS011;2932;52.400;9.558;2023-03-31T02:47:15;6.80;;;2.10;;
5811;SDS011;2932;52.400;9.558;2023-03-31T02:49:50;4.33;;;1.77;;
5811;SDS011;2932;52.400;9.558;2023-03-31T03:00:17;4.77;;;1.07;;
5811;SDS011;2932;52.400;9.558;2023-03-31T03:05:52;7.10;;;1.70;;
5811;SDS011;2932;52.400;9.558;2023-03-31T03:14:01;3.43;;;1.20;;
5811;SDS011;2932;52.400;9.558;2023-03-31T03:16:36;7.90;;;1.50;;
5811;SDS011;2932;52.400;9.558;2023-03-31T03:19:06;2.53;;;1.00;;
5811;SDS011;2932;52.400;9.558;2023-03-31T03:21:31;3.83;;;1.00;;
5811;SDS011;2932;52.400;9.558;2023-03-31T03:23:58;4.97;;;1.30;;
5811;SDS011;2932;52.400;9.558;2023-03-31T03:26:24;4.10;;;1.17;;
5811;SDS011;2932;52.400;9.558;2023-03-31T03:28:52;6.57;;;1.43;;
5811;SDS011;2932;52.400;9.558;2023-03-31T03:31:19;3.90;;;1.73;;
5811;SDS011;2932;52.400;9.558;2023-03-31T03:33:47;3.20;;;1.40;;
5811;SDS011;2932;52.400;9.558;2023-03-31T03:36:16;6.40;;;1.30;;
5811;SDS011;2932;52.400;9.558;2023-03-31T03:38:42;3.70;;;1.20;;
5811;SDS011;2932;52.400;9.558;2023-03-31T03:41:07;3.87;;;0.90;;
5811;SDS011;2932;52.400;9.558;2023-03-31T03:43:32;6.47;;;1.43;;
5811;SDS011;2932;52.400;9.558;2023-03-31T03:45:58;5.97;;;1.23;;
5811;SDS011;2932;52.400;9.558;2023-03-31T03:48:23;7.00;;;1.47;;
5811;SDS011;2932;52.400;9.558;2023-03-31T03:50:50;3.90;;;0.90;;
5811;SDS011;2932;52.400;9.558;2023-03-31T03:53:17;3.27;;;1.00;;
5811;SDS011;2932;52.400;9.558;2023-03-31T03:55:42;4.70;;;1.00;;
5811;SDS011;2932;52.400;9.558;2023-03-31T03:58:09;4.30;;;1.10;;
5811;SDS011;2932;52.400;9.558;2023-03-31T04:00:34;4.20;;;1.00;;
5811;SDS011;2932;52.400;9.558;2023-03-31T04:03:00;2.87;;;0.80;;
5811;SDS011;2932;52.400;9.558;2023-03-31T04:05:25;2.60;;;0.87;;
5811;SDS011;2932;52.400;9.558;2023-03-31T04:07:51;4.60;;;1.30;;
5811;SDS011;2932;52.400;9.558;2023-03-31T04:10:16;5.03;;;1.27;;
5811;SDS011;2932;52.400;9.558;2023-03-31T04:12:41;5.07;;;1.20;;
5811;SDS011;2932;52.400;9.558;2023-03-31T04:15:07;5.50;;;1.10;;
5811;SDS011;2932;52.400;9.558;2023-03-31T04:17:32;4.40;;;1.00;;
5811;SDS011;2932;52.400;9.558;2023-03-31T04:20:02;5.87;;;1.90;;
5811;SDS011;2932;52.400;9.558;2023-03-31T04:22:31;3.83;;;0.83;;
5811;SDS011;2932;52.400;9.558;2023-03-31T04:25:04;4.63;;;1.00;;
5811;SDS011;2932;52.400;9.558;2023-03-31T04:27:34;3.13;;;1.00;;
5811;SDS011;2932;52.400;9.558;2023-03-31T04:30:00;4.10;;;1.27;;
5811;SDS011;2932;52.400;9.558;2023-03-31T04:32:25;3.10;;;1.13;;
5811;SDS011;2932;52.400;9.558;2023-03-31T04:34:52;4.37;;;0.97;;
5811;SDS011;2932;52.400;9.558;2023-03-31T04:37:26;4.70;;;1.00;;
5811;SDS011;2932;52.400;9.558;2023-03-31T04:39:58;3.20;;;1.00;;
5811;SDS011;2932;52.400;9.558;2023-03-31T04:42:30;6.00;;;1.17;;
5811;SDS011;2932;52.400;9.558;2023-03-31T04:44:55;4.63;;;1.20;;
5811;SDS011;2932;52.400;9.558;2023-03-31T04:47:21;1.90;;;1.00;;
5811;SDS011;2932;52.400;9.558;2023-03-31T04:49:46;3.73;;;1.10;;
5811;SDS011;2932;52.400;9.558;2023-03-31T04:52:11;3.07;;;1.00;;
5811;SDS011;2932;52.400;9.558;2023-03-31T04:54:37;3.00;;;1.10;;
5811;SDS011;2932;52.400;9.558;2023-03-31T04:57:02;3.80;;;1.10;;
5811;SDS011;2932;52.400;9.558;2023-03-31T04:59:27;2.00;;;0.90;;
5811;SDS011;2932;52.400;9.558;2023-03-31T05:01:53;5.73;;;1.10;;
5811;SDS011;2932;52.400;9.558;2023-03-31T05:04:18;5.20;;;1.23;;
5811;SDS011;2932;52.400;9.558;2023-03-31T05:06:43;3.53;;;1.43;;
5811;SDS011;2932;52.400;9.558;2023-03-31T05:09:08;3.90;;;1.10;;
5811;SDS011;2932;52.400;9.558;2023-03-31T05:11:34;2.40;;;0.73;;
5811;SDS011;2932;52.400;9.558;2023-03-31T05:14:00;4.47;;;1.00;;
5811;SDS011;2932;52.400;9.558;2023-03-31T05:16:25;9.87;;;1.40;;
5811;SDS011;2932;52.400;9.558;2023-03-31T05:18:50;3.67;;;1.07;;
5811;SDS011;2932;52.400;9.558;2023-03-31T05:21:17;3.63;;;1.10;;
5811;SDS011;2932;52.400;9.558;2023-03-31T05:23:44;4.23;;;1.03;;
5811;SDS011;2932;52.400;9.558;2023-03-31T05:26:11;5.80;;;1.03;;
5811;SDS011;2932;52.400;9.558;2023-03-31T05:28:37;4.10;;;1.00;;
5811;SDS011;2932;52.400;9.558;2023-03-31T05:31:03;5.23;;;1.17;;
5811;SDS011;2932;52.400;9.558;2023-03-31T05:33:30;5.10;;;1.33;;
5811;SDS011;2932;52.400;9.558;2023-03-31T05:35:56;3.47;;;0.87;;
5811;SDS011;2932;52.400;9.558;2023-03-31T05:38:21;4.07;;;0.97;;
5811;SDS011;2932;52.400;9.558;2023-03-31T05:40:47;3.30;;;1.10;;
5811;SDS011;2932;52.400;9.558;2023-03-31T05:43:12;3.80;;;0.97;;
5811;SDS011;2932;52.400;9.558;2023-03-31T05:45:38;4.73;;;1.37;;
5811;SDS011;2932;52.400;9.558;2023-03-31T05:48:04;5.27;;;1.10;;
5811;SDS011;2932;52.400;9.558;2023-03-31T05:50:29;5.23;;;1.33;;
5811;SDS011;2932;52.400;9.558;2023-03-31T05:52:55;5.73;;;1.40;;
5811;SDS011;2932;52.400;9.558;2023-03-31T05:55:21;5.87;;;1.20;;
5811;SDS011;2932;52.400;9.558;2023-03-31T05:57:47;3.57;;;1.10;;
5811;SDS011;2932;52.400;9.558;2023-03-31T06:00:12;3.60;;;1.10;;
5811;SDS011;2932;52.400;9.558;2023-03-31T06:02:38;6.70;;;1.30;;
5811;SDS011;2932;52.400;9.558;2023-03-31T06:05:05;2.47;;;1.10;;
5811;SDS011;2932;52.400;9.558;2023-03-31T06:07:30;3.53;;;1.20;;
5811;SDS011;2932;52.400;9.558;2023-03-31T06:09:56;7.30;;;1.57;;
5811;SDS011;2932;52.400;9.558;2023-03-31T06:12:21;4.17;;;1.40;;
5811;SDS011;2932;52.400;9.558;2023-03-31T06:14:46;4.10;;;1.20;;
5811;SDS011;2932;52.400;9.558;2023-03-31T06:17:12;3.63;;;1.10;;
5811;SDS011;2932;52.400;9.558;2023-03-31T06:19:37;6.20;;;0.93;;
5811;SDS011;2932;52.400;9.558;2023-03-31T06:22:04;2.33;;;0.90;;
5811;SDS011;2932;52.400;9.558;2023-03-31T06:24:29;3.87;;;1.10;;
5811;SDS011;2932;52.400;9.558;2023-03-31T06:26:54;6.17;;;1.20;;
5811;SDS011;2932;52.400;9.558;2023-03-31T06:29:20;2.00;;;0.80;;
5811;SDS011;2932;52.400;9.558;2023-03-31T06:31:45;3.30;;;1.17;;
5811;SDS011;2932;52.400;9.558;2023-03-31T06:34:11;4.80;;;1.00;;
5811;SDS011;2932;52.400;9.558;2023-03-31T06:36:36;6.87;;;1.40;;
5811;SDS011;2932;52.400;9.558;2023-03-31T06:39:02;4.97;;;1.00;;
5811;SDS011;2932;52.400;9.558;2023-03-31T06:41:27;3.27;;;0.90;;
5811;SDS011;2932;52.400;9.558;2023-03-31T06:43:52;4.43;;;1.20;;
5811;SDS011;2932;52.400;9.558;2023-03-31T06:46:18;6.30;;;1.47;;
5811;SDS011;2932;52.400;9.558;2023-03-31T06:48:43;4.67;;;1.40;;
5811;SDS011;2932;52.400;9.558;2023-03-31T06:51:09;4.40;;;1.07;;
5811;SDS011;2932;52.400;9.558;2023-03-31T06:53:34;3.93;;;1.00;;
5811;SDS011;2932;52.400;9.558;2023-03-31T06:56:01;1.43;;;0.90;;
5811;SDS011;2932;52.400;9.558;2023-03-31T06:58:26;3.10;;;0.80;;
5811;SDS011;2932;52.400;9.558;2023-03-31T07:00:52;2.83;;;1.00;;
5811;SDS011;2932;52.400;9.558;2023-03-31T07:03:17;6.27;;;1.00;;
5811;SDS011;2932;52.400;9.558;2023-03-31T07:05:49;2.00;;;0.93;;
5811;SDS011;2932;52.400;9.558;2023-03-31T07:08:16;5.23;;;0.87;;
5811;SDS011;2932;52.400;9.558;2023-03-31T07:10:42;4.37;;;1.00;;
5811;SDS011;2932;52.400;9.558;2023-03-31T07:13:11;2.93;;;0.93;;
5811;SDS011;2932;52.400;9.558;2023-03-31T07:15:37;5.47;;;1.00;;
5811;SDS011;2932;52.400;9.558;2023-03-31T07:18:02;2.03;;;0.97;;
5811;SDS011;2932;52.400;9.558;2023-03-31T07:20:28;2.43;;;0.77;;
5811;SDS011;2932;52.400;9.558;2023-03-31T07:22:55;1.37;;;0.90;;
5811;SDS011;2932;52.400;9.558;2023-03-31T07:25:20;3.07;;;1.23;;
5811;SDS011;2932;52.400;9.558;2023-03-31T07:27:46;4.60;;;0.97;;
5811;SDS011;2932;52.400;9.558;2023-03-31T07:30:12;2.80;;;0.83;;
5811;SDS011;2932;52.400;9.558;2023-03-31T07:32:40;2.47;;;0.90;;
5811;SDS011;2932;52.400;9.558;2023-03-31T07:35:06;3.27;;;0.90;;
5811;SDS011;2932;52.400;9.558;2023-03-31T07:37:35;1.33;;;1.20;;
5811;SDS011;2932;52.400;9.558;2023-03-31T07:40:06;3.30;;;1.00;;
5811;SDS011;2932;52.400;9.558;2023-03-31T07:42:33;3.73;;;0.80;;
5811;SDS011;2932;52.400;9.558;2023-03-31T07:45:00;3.37;;;1.00;;
5811;SDS011;2932;52.400;9.558;2023-03-31T07:47:26;5.17;;;0.90;;
5811;SDS011;2932;52.400;9.558;2023-03-31T07:49:51;4.27;;;1.10;;
5811;SDS011;2932;52.400;9.558;2023-03-31T07:52:17;2.17;;;0.90;;
5811;SDS011;2932;52.400;9.558;2023-03-31T07:54:44;4.00;;;1.30;;
5811;SDS011;2932;52.400;9.558;2023-03-31T07:57:12;4.17;;;1.10;;
5811;SDS011;2932;52.400;9.558;2023-03-31T07:59:38;5.23;;;1.57;;
5811;SDS011;2932;52.400;9.558;2023-03-31T08:02:03;2.77;;;0.80;;
5811;SDS011;2932;52.400;9.558;2023-03-31T08:04:29;3.63;;;0.93;;
5811;SDS011;2932;52.400;9.558;2023-03-31T08:06:54;2.47;;;1.00;;
5811;SDS011;2932;52.400;9.558;2023-03-31T08:09:20;2.90;;;0.87;;
5811;SDS011;2932;52.400;9.558;2023-03-31T08:11:46;4.60;;;1.23;;
5811;SDS011;2932;52.400;9.558;2023-03-31T08:14:12;3.10;;;0.90;;
5811;SDS011;2932;52.400;9.558;2023-03-31T08:16:38;3.50;;;1.13;;
5811;SDS011;2932;52.400;9.558;2023-03-31T08:19:03;1.97;;;0.80;;
5811;SDS011;2932;52.400;9.558;2023-03-31T08:21:28;3.07;;;1.33;;
5811;SDS011;2932;52.400;9.558;2023-03-31T08:23:54;3.43;;;1.10;;
5811;SDS011;2932;52.400;9.558;2023-03-31T08:26:20;1.90;;;1.17;;
5811;SDS011;2932;52.400;9.558;2023-03-31T08:28:48;4.07;;;1.00;;
5811;SDS011;2932;52.400;9.558;2023-03-31T08:31:14;6.10;;;1.57;;
5811;SDS011;2932;52.400;9.558;2023-03-31T08:33:41;3.87;;;1.10;;
5811;SDS011;2932;52.400;9.558;2023-03-31T08:36:07;4.20;;;1.07;;
5811;SDS011;2932;52.400;9.558;2023-03-31T08:38:35;2.73;;;1.07;;
5811;SDS011;2932;52.400;9.558;2023-03-31T08:41:06;2.43;;;1.00;;
5811;SDS011;2932;52.400;9.558;2023-03-31T08:43:39;3.40;;;1.10;;
5811;SDS011;2932;52.400;9.558;2023-03-31T08:46:11;4.43;;;1.30;;
5811;SDS011;2932;52.400;9.558;2023-03-31T08:48:47;3.17;;;1.00;;
5811;SDS011;2932;52.400;9.558;2023-03-31T08:51:19;1.57;;;0.93;;
5811;SDS011;2932;52.400;9.558;2023-03-31T08:53:49;5.40;;;1.20;;
5811;SDS011;2932;52.400;9.558;2023-03-31T08:56:22;5.07;;;1.27;;
5811;SDS011;2932;52.400;9.558;2023-03-31T08:58:51;2.40;;;1.30;;
5811;SDS011;2932;52.400;9.558;2023-03-31T09:07:04;1.73;;;0.87;;
5811;SDS011;2932;52.400;9.558;2023-03-31T09:12:25;3.90;;;1.07;;
5811;SDS011;2932;52.400;9.558;2023-03-31T09:22:46;3.63;;;1.20;;
5811;SDS011;2932;52.400;9.558;2023-03-31T09:27:43;3.30;;;0.90;;
5811;SDS011;2932;52.400;9.558;2023-03-31T09:32:34;3.80;;;0.90;;
5811;SDS011;2932;52.400;9.558;2023-03-31T09:37:42;4.13;;;0.80;;
5811;SDS011;2932;52.400;9.558;2023-03-31T09:40:12;2.20;;;0.60;;
5811;SDS011;2932;52.400;9.558;2023-03-31T09:42:40;3.33;;;0.80;;
5811;SDS011;2932;52.400;9.558;2023-03-31T09:45:11;1.30;;;0.67;;
5811;SDS011;2932;52.400;9.558;2023-03-31T09:47:41;5.03;;;0.80;;
5811;SDS011;2932;52.400;9.558;2023-03-31T09:50:09;4.23;;;0.90;;
5811;SDS011;2932;52.400;9.558;2023-03-31T09:52:36;2.00;;;0.67;;
5811;SDS011;2932;52.400;9.558;2023-03-31T09:57:55;2.97;;;0.80;;
5811;SDS011;2932;52.400;9.558;2023-03-31T10:00:23;3.07;;;0.70;;
5811;SDS011;2932;52.400;9.558;2023-03-31T10:02:56;2.77;;;0.90;;
5811;SDS011;2932;52.400;9.558;2023-03-31T10:05:28;2.63;;;0.83;;
5811;SDS011;2932;52.400;9.558;2023-03-31T10:10:48;1.80;;;0.90;;
5811;SDS011;2932;52.400;9.558;2023-03-31T10:13:16;2.80;;;1.80;;
5811;SDS011;2932;52.400;9.558;2023-03-31T10:15:45;0.60;;;0.50;;
5811;SDS011;2932;52.400;9.558;2023-03-31T10:18:14;1.87;;;0.87;;
5811;SDS011;2932;52.400;9.558;2023-03-31T10:20:43;1.63;;;0.60;;
5811;SDS011;2932;52.400;9.558;2023-03-31T10:25:56;1.60;;;0.63;;
5811;SDS011;2932;52.400;9.558;2023-03-31T10:28:22;1.43;;;0.70;;
5811;SDS011;2932;52.400;9.558;2023-03-31T10:30:49;1.83;;;0.60;;
5811;SDS011;2932;52.400;9.558;2023-03-31T10:33:23;2.07;;;0.63;;
5811;SDS011;2932;52.400;9.558;2023-03-31T10:35:54;2.93;;;0.60;;
5811;SDS011;2932;52.400;9.558;2023-03-31T10:38:41;2.47;;;0.73;;
5811;SDS011;2932;52.400;9.558;2023-03-31T10:41:09;1.60;;;0.50;;
5811;SDS011;2932;52.400;9.558;2023-03-31T10:43:36;1.73;;;0.70;;
5811;SDS011;2932;52.400;9.558;2023-03-31T10:46:02;2.07;;;0.53;;
5811;SDS011;2932;52.400;9.558;2023-03-31T10:48:30;2.27;;;0.53;;
5811;SDS011;2932;52.400;9.558;2023-03-31T10:53:46;0.80;;;0.50;;
5811;SDS011;2932;52.400;9.558;2023-03-31T10:59:09;1.90;;;0.53;;
5811;SDS011;2932;52.400;9.558;2023-03-31T11:12:39;0.90;;;0.40;;
5811;SDS011;2932;52.400;9.558;2023-03-31T11:34:50;3.53;;;0.77;;
5811;SDS011;2932;52.400;9.558;2023-03-31T11:43:16;0.40;;;0.30;;
5811;SDS011;2932;52.400;9.558;2023-03-31T11:45:46;2.00;;;0.50;;
5811;SDS011;2932;52.400;9.558;2023-03-31T11:48:22;1.33;;;0.60;;
5811;SDS011;2932;52.400;9.558;2023-03-31T11:50:55;1.40;;;0.60;;
5811;SDS011;2932;52.400;9.558;2023-03-31T11:53:24;1.80;;;0.50;;
5811;SDS011;2932;52.400;9.558;2023-03-31T11:55:54;1.03;;;0.50;;
5811;SDS011;2932;52.400;9.558;2023-03-31T11:58:23;1.10;;;0.50;;
5811;SDS011;2932;52.400;9.558;2023-03-31T12:01:06;1.17;;;0.50;;
5811;SDS011;2932;52.400;9.558;2023-03-31T12:03:45;1.90;;;0.53;;
5811;SDS011;2932;52.400;9.558;2023-03-31T12:06:17;1.17;;;0.57;;
5811;SDS011;2932;52.400;9.558;2023-03-31T12:14:42;1.00;;;0.50;;
5811;SDS011;2932;52.400;9.558;2023-03-31T12:17:21;3.13;;;0.60;;
5811;SDS011;2932;52.400;9.558;2023-03-31T12:19:51;0.87;;;0.60;;
5811;SDS011;2932;52.400;9.558;2023-03-31T12:22:28;3.30;;;0.63;;
5811;SDS011;2932;52.400;9.558;2023-03-31T12:24:58;3.67;;;0.80;;
5811;SDS011;2932;52.400;9.558;2023-03-31T12:27:28;1.93;;;0.70;;
5811;SDS011;2932;52.400;9.558;2023-03-31T12:30:12;1.63;;;0.60;;
5811;SDS011;2932;52.400;9.558;2023-03-31T12:33:06;3.00;;;0.60;;
5811;SDS011;2932;52.400;9.558;2023-03-31T12:35:43;1.60;;;0.63;;
5811;SDS011;2932;52.400;9.558;2023-03-31T12:52:15;1.20;;;0.60;;
5811;SDS011;2932;52.400;9.558;2023-03-31T12:57:13;1.73;;;0.60;;
5811;SDS011;2932;52.400;9.558;2023-03-31T12:59:44;3.27;;;0.87;;
5811;SDS011;2932;52.400;9.558;2023-03-31T13:04:41;2.47;;;0.80;;
5811;SDS011;2932;52.400;9.558;2023-03-31T13:07:12;1.93;;;0.87;;
5811;SDS011;2932;52.400;9.558;2023-03-31T13:12:36;2.27;;;0.87;;
5811;SDS011;2932;52.400;9.558;2023-03-31T13:15:02;5.00;;;1.10;;
5811;SDS011;2932;52.400;9.558;2023-03-31T13:17:30;3.40;;;1.20;;
5811;SDS011;2932;52.400;9.558;2023-03-31T13:22:46;2.93;;;0.80;;
5811;SDS011;2932;52.400;9.558;2023-03-31T13:25:25;3.57;;;1.03;;
5811;SDS011;2932;52.400;9.558;2023-03-31T13:27:54;3.57;;;0.90;;
5811;SDS011;2932;52.400;9.558;2023-03-31T13:35:35;5.07;;;1.37;;
5811;SDS011;2932;52.400;9.558;2023-03-31T13:46:30;4.20;;;1.47;;
5811;SDS011;2932;52.400;9.558;2023-03-31T13:52:19;3.80;;;1.20;;
5811;SDS011;2932;52.400;9.558;2023-03-31T14:00:39;7.07;;;1.30;;
5811;SDS011;2932;52.400;9.558;2023-03-31T14:09:09;3.20;;;1.53;;
5811;SDS011;2932;52.400;9.558;2023-03-31T14:11:28;5.20;;;1.43;;
5811;SDS011;2932;52.400;9.558;2023-03-31T14:14:06;4.33;;;1.37;;
5811;SDS011;2932;52.400;9.558;2023-03-31T14:16:45;4.73;;;1.30;;
5811;SDS011;2932;52.400;9.558;2023-03-31T14:27:53;2.20;;;0.97;;
5811;SDS011;2932;52.400;9.558;2023-03-31T14:31:02;4.43;;;1.17;;
5811;SDS011;2932;52.400;9.558;2023-03-31T14:33:40;3.90;;;1.20;;
5811;SDS011;2932;52.400;9.558;2023-03-31T14:36:26;4.23;;;1.07;;
5811;SDS011;2932;52.400;9.558;2023-03-31T14:39:15;3.93;;;1.00;;
5811;SDS011;2932;52.400;9.558;2023-03-31T14:41:49;2.80;;;1.10;;
5811;SDS011;2932;52.400;9.558;2023-03-31T14:44:17;6.30;;;1.33;;
5811;SDS011;2932;52.400;9.558;2023-03-31T14:46:43;6.70;;;1.40;;
5811;SDS011;2932;52.400;9.558;2023-03-31T14:49:20;3.43;;;1.40;;
5811;SDS011;2932;52.400;9.558;2023-03-31T14:51:50;6.87;;;1.63;;
5811;SDS011;2932;52.400;9.558;2023-03-31T14:54:18;3.37;;;1.30;;
5811;SDS011;2932;52.400;9.558;2023-03-31T14:56:49;2.97;;;1.50;;
5811;SDS011;2932;52.400;9.558;2023-03-31T14:59:18;3.00;;;1.00;;
5811;SDS011;2932;52.400;9.558;2023-03-31T15:01:47;4.40;;;1.20;;
5811;SDS011;2932;52.400;9.558;2023-03-31T15:04:14;4.20;;;1.57;;
5811;SDS011;2932;52.400;9.558;2023-03-31T15:06:44;6.87;;;1.40;;
5811;SDS011;2932;52.400;9.558;2023-03-31T15:09:13;3.60;;;1.87;;
5811;SDS011;2932;52.400;9.558;2023-03-31T15:11:58;6.10;;;1.30;;
5811;SDS011;2932;52.400;9.558;2023-03-31T15:14:29;7.00;;;1.70;;
5811;SDS011;2932;52.400;9.558;2023-03-31T15:16:58;5.20;;;2.13;;
5811;SDS011;2932;52.400;9.558;2023-03-31T15:19:26;3.90;;;1.63;;
5811;SDS011;2932;52.400;9.558;2023-03-31T15:21:54;7.63;;;1.67;;
5811;SDS011;2932;52.400;9.558;2023-03-31T15:24:22;4.53;;;1.80;;
5811;SDS011;2932;52.400;9.558;2023-03-31T15:26:53;3.83;;;1.37;;
5811;SDS011;2932;52.400;9.558;2023-03-31T15:32:31;5.47;;;1.60;;
5811;SDS011;2932;52.400;9.558;2023-03-31T15:35:00;2.77;;;1.20;;
5811;SDS011;2932;52.400;9.558;2023-03-31T15:37:38;3.43;;;1.30;;
5811;SDS011;2932;52.400;9.558;2023-03-31T15:40:09;5.33;;;1.43;;
5811;SDS011;2932;52.400;9.558;2023-03-31T15:42:43;4.10;;;1.03;;
5811;SDS011;2932;52.400;9.558;2023-03-31T15:47:51;2.53;;;0.90;;
5811;SDS011;2932;52.400;9.558;2023-03-31T15:50:19;1.53;;;0.80;;
5811;SDS011;2932;52.400;9.558;2023-03-31T15:52:50;1.83;;;0.70;;
5811;SDS011;2932;52.400;9.558;2023-03-31T15:57:47;2.47;;;0.53;;
5811;SDS011;2932;52.400;9.558;2023-03-31T16:02:57;2.03;;;0.67;;
5811;SDS011;2932;52.400;9.558;2023-03-31T16:07:50;3.80;;;1.00;;
5811;SDS011;2932;52.400;9.558;2023-03-31T16:10:19;2.53;;;0.90;;
5811;SDS011;2932;52.400;9.558;2023-03-31T16:12:58;2.67;;;1.30;;
5811;SDS011;2932;52.400;9.558;2023-03-31T16:15:37;2.27;;;1.10;;
5811;SDS011;2932;52.400;9.558;2023-03-31T16:18:07;2.53;;;1.23;;
5811;SDS011;2932;52.400;9.558;2023-03-31T16:20:39;3.77;;;1.47;;
5811;SDS011;2932;52.400;9.558;2023-03-31T16:23:16;3.53;;;1.37;;
5811;SDS011;2932;52.400;9.558;2023-03-31T16:25:45;4.17;;;1.63;;
5811;SDS011;2932;52.400;9.558;2023-03-31T16:28:12;4.10;;;1.87;;
5811;SDS011;2932;52.400;9.558;2023-03-31T16:30:42;3.73;;;1.40;;
5811;SDS011;2932;52.400;9.558;2023-03-31T16:33:13;3.73;;;1.50;;
5811;SDS011;2932;52.400;9.558;2023-03-31T16:35:47;4.50;;;1.80;;
5811;SDS011;2932;52.400;9.558;2023-03-31T16:38:15;4.87;;;1.73;;
5811;SDS011;2932;52.400;9.558;2023-03-31T16:40:41;8.00;;;1.80;;
5811;SDS011;2932;52.400;9.558;2023-03-31T16:43:09;4.43;;;2.00;;
5811;SDS011;2932;52.400;9.558;2023-03-31T16:45:38;5.50;;;2.47;;
5811;SDS011;2932;52.400;9.558;2023-03-31T16:48:04;6.10;;;2.63;;
5811;SDS011;2932;52.400;9.558;2023-03-31T16:50:29;8.50;;;3.90;;
5811;SDS011;2932;52.400;9.558;2023-03-31T16:52:55;6.30;;;2.67;;
5811;SDS011;2932;52.400;9.558;2023-03-31T16:55:21;5.87;;;2.40;;
5811;SDS011;2932;52.400;9.558;2023-03-31T16:57:46;4.67;;;2.20;;
5811;SDS011;2932;52.400;9.558;2023-03-31T17:00:12;9.43;;;2.40;;
5811;SDS011;2932;52.400;9.558;2023-03-31T17:02:38;2.83;;;2.20;;
5811;SDS011;2932;52.400;9.558;2023-03-31T17:05:04;4.07;;;2.00;;
5811;SDS011;2932;52.400;9.558;2023-03-31T17:07:30;6.27;;;2.03;;
5811;SDS011;2932;52.400;9.558;2023-03-31T17:09:55;6.77;;;2.30;;
5811;SDS011;2932;52.400;9.558;2023-03-31T17:12:20;4.03;;;1.70;;
5811;SDS011;2932;52.400;9.558;2023-03-31T17:14:46;4.63;;;2.03;;
5811;SDS011;2932;52.400;9.558;2023-03-31T17:17:11;4.73;;;1.50;;
5811;SDS011;2932;52.400;9.558;2023-03-31T17:19:36;4.43;;;1.87;;
5811;SDS011;2932;52.400;9.558;2023-03-31T17:22:02;6.27;;;2.63;;
5811;SDS011;2932;52.400;9.558;2023-03-31T17:24:28;6.83;;;2.43;;
5811;SDS011;2932;52.400;9.558;2023-03-31T17:26:53;5.17;;;2.00;;
5811;SDS011;2932;52.400;9.558;2023-03-31T17:29:19;7.57;;;1.90;;
5811;SDS011;2932;52.400;9.558;2023-03-31T17:31:44;7.33;;;2.90;;
5811;SDS011;2932;52.400;9.558;2023-03-31T17:34:09;7.67;;;2.90;;
5811;SDS011;2932;52.400;9.558;2023-03-31T17:36:35;8.20;;;2.87;;
5811;SDS011;2932;52.400;9.558;2023-03-31T17:39:01;7.90;;;2.90;;
5811;SDS011;2932;52.400;9.558;2023-03-31T17:41:28;7.27;;;3.37;;
5811;SDS011;2932;52.400;9.558;2023-03-31T17:43:54;9.00;;;3.60;;
5811;SDS011;2932;52.400;9.558;2023-03-31T17:46:20;6.77;;;3.20;;
5811;SDS011;2932;52.400;9.558;2023-03-31T17:48:45;8.70;;;3.13;;
5811;SDS011;2932;52.400;9.558;2023-03-31T17:51:12;5.60;;;2.30;;
5811;SDS011;2932;52.400;9.558;2023-03-31T17:53:40;7.10;;;2.47;;
5811;SDS011;2932;52.400;9.558;2023-03-31T17:56:08;5.57;;;2.87;;
5811;SDS011;2932;52.400;9.558;2023-03-31T17:58:33;4.03;;;1.60;;
5811;SDS011;2932;52.400;9.558;2023-03-31T18:00:59;5.37;;;1.67;;
5811;SDS011;2932;52.400;9.558;2023-03-31T18:03:27;7.70;;;2.17;;
5811;SDS011;2932;52.400;9.558;2023-03-31T18:05:53;5.83;;;2.10;;
5811;SDS011;2932;52.400;9.558;2023-03-31T18:08:18;6.40;;;1.77;;
5811;SDS011;2932;52.400;9.558;2023-03-31T18:10:43;4.90;;;1.80;;
5811;SDS011;2932;52.400;9.558;2023-03-31T18:13:10;7.23;;;2.20;;
5811;SDS011;2932;52.400;9.558;2023-03-31T18:15:35;8.43;;;1.97;;
5811;SDS011;2932;52.400;9.558;2023-03-31T18:18:01;5.00;;;1.87;;
5811;SDS011;2932;52.400;9.558;2023-03-31T18:20:28;6.67;;;2.43;;
5811;SDS011;2932;52.400;9.558;2023-03-31T18:22:53;4.20;;;2.03;;
5811;SDS011;2932;52.400;9.558;2023-03-31T18:25:18;7.47;;;2.47;;
5811;SDS011;2932;52.400;9.558;2023-03-31T18:27:44;6.20;;;2.10;;
5811;SDS011;2932;52.400;9.558;2023-03-31T18:30:11;6.97;;;3.37;;
5811;SDS011;2932;52.400;9.558;2023-03-31T18:32:37;6.90;;;2.30;;
5811;SDS011;2932;52.400;9.558;2023-03-31T18:35:03;6.23;;;2.43;;
5811;SDS011;2932;52.400;9.558;2023-03-31T18:37:30;7.73;;;2.47;;
5811;SDS011;2932;52.400;9.558;2023-03-31T18:39:55;6.43;;;2.20;;
5811;SDS011;2932;52.400;9.558;2023-03-31T18:42:21;7.93;;;2.20;;
5811;SDS011;2932;52.400;9.558;2023-03-31T18:44:50;4.83;;;1.57;;
5811;SDS011;2932;52.400;9.558;2023-03-31T18:47:16;3.30;;;1.50;;
5811;SDS011;2932;52.400;9.558;2023-03-31T18:49:42;7.03;;;1.60;;
5811;SDS011;2932;52.400;9.558;2023-03-31T18:52:08;5.00;;;1.57;;
5811;SDS011;2932;52.400;9.558;2023-03-31T18:54:33;4.80;;;1.63;;
5811;SDS011;2932;52.400;9.558;2023-03-31T18:56:58;4.70;;;1.23;;